首页
METAR-TAF:

METAR-TAF

机场 :

伦敦绍森德机场

伦敦Southend, 英格兰

纬度: 51-34N, 经度: 000-42E, 海拔: 15米

当前天气观测

该预报发布于20分钟前的14:20 UTC
风速8节,风向西转西北,在西转西南西北之间变化
温度 14°C
湿度 51%
气压 996 hPa
能見度: 8000
少量云层高于3500英尺
散云层高于4800英尺
阵雨

METAR: EGMC 051420Z 30008KT 240V320 8000 SHRA FEW035 SCT048 14/04 Q0996

时间: 15:40 (14:40 UTC)

预报

该预报发布于6小时和43分钟前的07:57 UTC
预报有效从05日的 09点(UTC)到 05日的 18点(UTC)
风速14节,风向西
能见度10公里或以上
散云层高于3000英尺
短暂存在
从 05日的 09点(UTC)到 05日的 18点(UTC)
能見度: 7000
阵雨
几率 30% :
短暂存在
从 05日的 10点(UTC)到 05日的 18点(UTC)
风速18节,风向西转西北,有时为28节阵风
能見度: 4000
大阵雨

TAF: EGMC 050757Z 0509/0518 28014KT 9999 SCT030 TEMPO 0509/0518 7000 SHRA PROB30 TEMPO 0510/0518 30018G28KT 4000 +SHRA

超过4000个机场的气象观测和天气预报(METAR&TAF报告)。

可查询的气象台以黄色和红色小点在地图上表示。

将鼠标移到小点上方,可查看气象台名称。

然后点击查看天气观测和预报。

如需切换地图:点击带黑十字的绿色按钮放大地图;点击带横线的绿色按钮缩小地图;或者点击绿色箭头查看邻近地区的地图。


METAR-TAF: